sensor_id;sensor_type;location;lat;lon;timestamp;P1;durP1;ratioP1;P2;durP2;ratioP2
73515;SDS011;61763;51.416;5.442;2022-12-18T00:00:46;40.67;;;12.10;;
73515;SDS011;61763;51.416;5.442;2022-12-18T00:03:12;39.33;;;10.93;;
73515;SDS011;61763;51.416;5.442;2022-12-18T00:06:12;30.88;;;9.80;;
73515;SDS011;61763;51.416;5.442;2022-12-18T00:08:33;35.58;;;10.95;;
73515;SDS011;61763;51.416;5.442;2022-12-18T00:11:06;30.25;;;9.10;;
73515;SDS011;61763;51.416;5.442;2022-12-18T00:13:33;36.78;;;11.50;;
73515;SDS011;61763;51.416;5.442;2022-12-18T00:16:03;42.97;;;12.82;;
73515;SDS011;61763;51.416;5.442;2022-12-18T00:18:30;36.97;;;11.63;;
73515;SDS011;61763;51.416;5.442;2022-12-18T00:20:58;33.45;;;11.38;;
73515;SDS011;61763;51.416;5.442;2022-12-18T00:23:25;40.35;;;12.55;;
73515;SDS011;61763;51.416;5.442;2022-12-18T00:25:52;36.97;;;11.40;;
73515;SDS011;61763;51.416;5.442;2022-12-18T00:28:17;32.78;;;10.23;;
73515;SDS011;61763;51.416;5.442;2022-12-18T00:30:43;41.97;;;12.48;;
73515;SDS011;61763;51.416;5.442;2022-12-18T00:33:08;42.65;;;11.57;;
73515;SDS011;61763;51.416;5.442;2022-12-18T00:35:33;42.60;;;12.53;;
73515;SDS011;61763;51.416;5.442;2022-12-18T00:37:58;30.20;;;10.65;;
73515;SDS011;61763;51.416;5.442;2022-12-18T00:40:24;33.55;;;12.57;;
73515;SDS011;61763;51.416;5.442;2022-12-18T00:42:49;39.75;;;12.60;;
73515;SDS011;61763;51.416;5.442;2022-12-18T00:45:20;46.85;;;13.98;;
73515;SDS011;61763;51.416;5.442;2022-12-18T00:47:46;33.67;;;10.82;;
73515;SDS011;61763;51.416;5.442;2022-12-18T00:50:12;35.03;;;11.57;;
73515;SDS011;61763;51.416;5.442;2022-12-18T00:52:37;36.08;;;10.50;;
73515;SDS011;61763;51.416;5.442;2022-12-18T00:55:03;40.45;;;11.57;;
73515;SDS011;61763;51.416;5.442;2022-12-18T00:57:28;43.55;;;12.20;;
73515;SDS011;61763;51.416;5.442;2022-12-18T00:59:54;33.78;;;11.23;;
73515;SDS011;61763;51.416;5.442;2022-12-18T01:02:19;39.35;;;13.27;;
73515;SDS011;61763;51.416;5.442;2022-12-18T01:04:45;36.08;;;11.18;;
73515;SDS011;61763;51.416;5.442;2022-12-18T01:07:10;36.65;;;11.52;;
73515;SDS011;61763;51.416;5.442;2022-12-18T01:09:36;36.08;;;11.63;;
73515;SDS011;61763;51.416;5.442;2022-12-18T01:12:02;30.83;;;9.82;;
73515;SDS011;61763;51.416;5.442;2022-12-18T01:14:27;32.45;;;10.05;;
73515;SDS011;61763;51.416;5.442;2022-12-18T01:16:53;36.35;;;11.95;;
73515;SDS011;61763;51.416;5.442;2022-12-18T01:19:18;24.90;;;9.30;;
73515;SDS011;61763;51.416;5.442;2022-12-18T01:21:43;31.07;;;10.97;;
73515;SDS011;61763;51.416;5.442;2022-12-18T01:24:09;43.75;;;11.13;;
73515;SDS011;61763;51.416;5.442;2022-12-18T01:26:36;33.60;;;11.63;;
73515;SDS011;61763;51.416;5.442;2022-12-18T01:29:02;32.97;;;10.13;;
73515;SDS011;61763;51.416;5.442;2022-12-18T01:31:30;21.83;;;6.85;;
73515;SDS011;61763;51.416;5.442;2022-12-18T01:33:57;36.63;;;11.45;;
73515;SDS011;61763;51.416;5.442;2022-12-18T01:36:29;38.60;;;11.80;;
73515;SDS011;61763;51.416;5.442;2022-12-18T01:39:01;29.63;;;11.23;;
73515;SDS011;61763;51.416;5.442;2022-12-18T01:41:30;29.58;;;11.00;;
73515;SDS011;61763;51.416;5.442;2022-12-18T01:49:52;33.42;;;10.93;;
73515;SDS011;61763;51.416;5.442;2022-12-18T01:52:19;28.88;;;9.68;;
73515;SDS011;61763;51.416;5.442;2022-12-18T01:54:46;20.73;;;7.55;;
73515;SDS011;61763;51.416;5.442;2022-12-18T01:57:13;40.80;;;11.85;;
73515;SDS011;61763;51.416;5.442;2022-12-18T01:59:39;30.75;;;10.77;;
73515;SDS011;61763;51.416;5.442;2022-12-18T02:02:07;24.58;;;9.50;;
73515;SDS011;61763;51.416;5.442;2022-12-18T02:04:33;32.25;;;11.18;;
73515;SDS011;61763;51.416;5.442;2022-12-18T02:18:34;29.25;;;9.77;;
73515;SDS011;61763;51.416;5.442;2022-12-18T02:23:52;22.60;;;9.75;;
73515;SDS011;61763;51.416;5.442;2022-12-18T02:26:31;22.00;;;8.88;;
73515;SDS011;61763;51.416;5.442;2022-12-18T02:29:06;26.00;;;10.40;;
73515;SDS011;61763;51.416;5.442;2022-12-18T02:31:36;28.77;;;10.07;;
73515;SDS011;61763;51.416;5.442;2022-12-18T02:34:07;17.77;;;6.53;;
73515;SDS011;61763;51.416;5.442;2022-12-18T02:36:34;23.00;;;8.88;;
73515;SDS011;61763;51.416;5.442;2022-12-18T02:39:03;33.72;;;11.27;;
73515;SDS011;61763;51.416;5.442;2022-12-18T02:43:58;25.85;;;9.38;;
73515;SDS011;61763;51.416;5.442;2022-12-18T02:52:01;16.60;;;4.72;;
73515;SDS011;61763;51.416;5.442;2022-12-18T02:54:47;25.77;;;8.27;;
73515;SDS011;61763;51.416;5.442;2022-12-18T03:00:17;31.48;;;8.48;;
73515;SDS011;61763;51.416;5.442;2022-12-18T03:06:25;11.32;;;3.65;;
73515;SDS011;61763;51.416;5.442;2022-12-18T03:09:02;24.30;;;8.45;;
73515;SDS011;61763;51.416;5.442;2022-12-18T03:11:32;6.53;;;2.45;;
73515;SDS011;61763;51.416;5.442;2022-12-18T03:14:21;16.58;;;7.28;;
73515;SDS011;61763;51.416;5.442;2022-12-18T03:16:49;21.00;;;6.90;;
73515;SDS011;61763;51.416;5.442;2022-12-18T03:19:18;25.15;;;8.50;;
73515;SDS011;61763;51.416;5.442;2022-12-18T03:21:49;11.60;;;4.32;;
73515;SDS011;61763;51.416;5.442;2022-12-18T03:24:19;31.92;;;10.05;;
73515;SDS011;61763;51.416;5.442;2022-12-18T03:26:49;18.65;;;8.48;;
73515;SDS011;61763;51.416;5.442;2022-12-18T03:29:21;11.18;;;4.80;;
73515;SDS011;61763;51.416;5.442;2022-12-18T03:31:51;20.27;;;5.78;;
73515;SDS011;61763;51.416;5.442;2022-12-18T03:34:24;21.38;;;7.60;;
73515;SDS011;61763;51.416;5.442;2022-12-18T03:36:54;20.20;;;6.57;;
73515;SDS011;61763;51.416;5.442;2022-12-18T03:39:19;25.10;;;9.00;;
73515;SDS011;61763;51.416;5.442;2022-12-18T03:41:51;10.70;;;4.40;;
73515;SDS011;61763;51.416;5.442;2022-12-18T03:44:29;13.85;;;6.18;;
73515;SDS011;61763;51.416;5.442;2022-12-18T03:55:19;13.60;;;5.60;;
73515;SDS011;61763;51.416;5.442;2022-12-18T03:57:47;23.08;;;6.57;;
73515;SDS011;61763;51.416;5.442;2022-12-18T04:00:14;18.13;;;6.38;;
73515;SDS011;61763;51.416;5.442;2022-12-18T04:02:45;20.65;;;7.25;;
73515;SDS011;61763;51.416;5.442;2022-12-18T04:05:19;20.48;;;8.05;;
73515;SDS011;61763;51.416;5.442;2022-12-18T04:07:47;21.20;;;8.07;;
73515;SDS011;61763;51.416;5.442;2022-12-18T04:10:15;11.88;;;5.05;;
73515;SDS011;61763;51.416;5.442;2022-12-18T04:12:43;25.65;;;8.07;;
73515;SDS011;61763;51.416;5.442;2022-12-18T04:15:09;23.88;;;8.95;;
73515;SDS011;61763;51.416;5.442;2022-12-18T04:17:35;17.73;;;6.45;;
73515;SDS011;61763;51.416;5.442;2022-12-18T04:20:01;14.15;;;5.43;;
73515;SDS011;61763;51.416;5.442;2022-12-18T04:22:27;16.73;;;6.05;;
73515;SDS011;61763;51.416;5.442;2022-12-18T04:24:52;20.05;;;7.20;;
73515;SDS011;61763;51.416;5.442;2022-12-18T04:27:17;21.15;;;6.68;;
73515;SDS011;61763;51.416;5.442;2022-12-18T04:29:43;20.00;;;8.60;;
73515;SDS011;61763;51.416;5.442;2022-12-18T04:32:08;15.88;;;5.25;;
73515;SDS011;61763;51.416;5.442;2022-12-18T04:34:34;20.13;;;7.20;;
73515;SDS011;61763;51.416;5.442;2022-12-18T04:36:59;15.20;;;4.63;;
73515;SDS011;61763;51.416;5.442;2022-12-18T04:39:24;17.80;;;5.65;;
73515;SDS011;61763;51.416;5.442;2022-12-18T04:41:50;23.77;;;8.27;;
73515;SDS011;61763;51.416;5.442;2022-12-18T04:44:15;17.10;;;5.38;;
73515;SDS011;61763;51.416;5.442;2022-12-18T04:46:41;24.48;;;8.52;;
73515;SDS011;61763;51.416;5.442;2022-12-18T04:49:06;26.00;;;7.90;;
73515;SDS011;61763;51.416;5.442;2022-12-18T04:51:32;25.23;;;7.78;;
73515;SDS011;61763;51.416;5.442;2022-12-18T04:53:57;18.27;;;7.10;;
73515;SDS011;61763;51.416;5.442;2022-12-18T04:56:22;17.55;;;7.25;;
73515;SDS011;61763;51.416;5.442;2022-12-18T04:58:49;23.75;;;8.23;;
73515;SDS011;61763;51.416;5.442;2022-12-18T05:01:16;21.70;;;6.97;;
73515;SDS011;61763;51.416;5.442;2022-12-18T05:03:42;22.10;;;6.25;;
73515;SDS011;61763;51.416;5.442;2022-12-18T05:06:08;23.30;;;7.50;;
73515;SDS011;61763;51.416;5.442;2022-12-18T05:08:34;22.30;;;7.57;;
73515;SDS011;61763;51.416;5.442;2022-12-18T05:11:04;20.63;;;7.60;;
73515;SDS011;61763;51.416;5.442;2022-12-18T05:13:31;20.20;;;6.85;;
73515;SDS011;61763;51.416;5.442;2022-12-18T05:15:58;19.83;;;7.75;;
73515;SDS011;61763;51.416;5.442;2022-12-18T05:18:23;18.35;;;6.55;;
73515;SDS011;61763;51.416;5.442;2022-12-18T05:20:50;7.82;;;3.00;;
73515;SDS011;61763;51.416;5.442;2022-12-18T05:23:16;16.70;;;5.55;;
73515;SDS011;61763;51.416;5.442;2022-12-18T05:25:46;21.00;;;5.85;;
73515;SDS011;61763;51.416;5.442;2022-12-18T05:28:15;12.98;;;5.47;;
73515;SDS011;61763;51.416;5.442;2022-12-18T05:30:41;19.25;;;6.72;;
73515;SDS011;61763;51.416;5.442;2022-12-18T05:33:07;14.25;;;6.15;;
73515;SDS011;61763;51.416;5.442;2022-12-18T05:35:34;13.67;;;4.93;;
73515;SDS011;61763;51.416;5.442;2022-12-18T05:37:59;12.80;;;4.20;;
73515;SDS011;61763;51.416;5.442;2022-12-18T05:40:25;22.30;;;8.38;;
73515;SDS011;61763;51.416;5.442;2022-12-18T05:42:50;15.52;;;5.57;;
73515;SDS011;61763;51.416;5.442;2022-12-18T05:45:15;21.15;;;6.07;;
73515;SDS011;61763;51.416;5.442;2022-12-18T05:47:41;3.20;;;1.92;;
73515;SDS011;61763;51.416;5.442;2022-12-18T05:50:06;17.08;;;5.75;;
73515;SDS011;61763;51.416;5.442;2022-12-18T05:52:32;15.43;;;5.22;;
73515;SDS011;61763;51.416;5.442;2022-12-18T05:54:58;9.95;;;4.15;;
73515;SDS011;61763;51.416;5.442;2022-12-18T05:57:24;14.35;;;5.47;;
73515;SDS011;61763;51.416;5.442;2022-12-18T05:59:49;10.48;;;5.40;;
73515;SDS011;61763;51.416;5.442;2022-12-18T06:02:14;17.55;;;6.30;;
73515;SDS011;61763;51.416;5.442;2022-12-18T06:04:40;14.30;;;6.07;;
73515;SDS011;61763;51.416;5.442;2022-12-18T06:07:05;18.58;;;5.78;;
73515;SDS011;61763;51.416;5.442;2022-12-18T06:09:30;16.33;;;5.85;;
73515;SDS011;61763;51.416;5.442;2022-12-18T06:11:56;21.27;;;7.30;;
73515;SDS011;61763;51.416;5.442;2022-12-18T06:14:22;16.38;;;6.15;;
73515;SDS011;61763;51.416;5.442;2022-12-18T06:16:47;15.70;;;5.22;;
73515;SDS011;61763;51.416;5.442;2022-12-18T06:19:16;15.63;;;6.03;;
73515;SDS011;61763;51.416;5.442;2022-12-18T06:21:42;21.92;;;6.18;;
73515;SDS011;61763;51.416;5.442;2022-12-18T06:24:07;18.75;;;5.93;;
73515;SDS011;61763;51.416;5.442;2022-12-18T06:26:33;21.75;;;6.65;;
73515;SDS011;61763;51.416;5.442;2022-12-18T06:28:58;14.18;;;5.10;;
73515;SDS011;61763;51.416;5.442;2022-12-18T06:31:23;22.33;;;7.90;;
73515;SDS011;61763;51.416;5.442;2022-12-18T06:33:49;20.35;;;4.80;;
73515;SDS011;61763;51.416;5.442;2022-12-18T06:36:15;23.23;;;6.78;;
73515;SDS011;61763;51.416;5.442;2022-12-18T06:38:42;21.63;;;7.30;;
73515;SDS011;61763;51.416;5.442;2022-12-18T06:41:12;18.13;;;5.85;;
73515;SDS011;61763;51.416;5.442;2022-12-18T06:43:39;19.02;;;6.50;;
73515;SDS011;61763;51.416;5.442;2022-12-18T06:46:05;17.05;;;5.60;;
73515;SDS011;61763;51.416;5.442;2022-12-18T06:48:31;10.38;;;4.25;;
73515;SDS011;61763;51.416;5.442;2022-12-18T06:50:57;13.48;;;5.60;;
73515;SDS011;61763;51.416;5.442;2022-12-18T06:53:23;15.23;;;4.53;;
73515;SDS011;61763;51.416;5.442;2022-12-18T06:55:48;23.10;;;7.65;;
73515;SDS011;61763;51.416;5.442;2022-12-18T06:58:14;24.00;;;7.55;;
73515;SDS011;61763;51.416;5.442;2022-12-18T07:00:39;14.52;;;5.00;;
73515;SDS011;61763;51.416;5.442;2022-12-18T07:03:04;16.92;;;5.50;;
73515;SDS011;61763;51.416;5.442;2022-12-18T07:05:30;8.00;;;3.15;;
73515;SDS011;61763;51.416;5.442;2022-12-18T07:07:56;15.10;;;3.35;;
73515;SDS011;61763;51.416;5.442;2022-12-18T07:10:21;13.25;;;6.35;;
73515;SDS011;61763;51.416;5.442;2022-12-18T07:12:46;4.90;;;1.92;;
73515;SDS011;61763;51.416;5.442;2022-12-18T07:15:13;15.18;;;6.10;;
73515;SDS011;61763;51.416;5.442;2022-12-18T07:17:39;12.05;;;4.68;;
73515;SDS011;61763;51.416;5.442;2022-12-18T07:20:04;19.80;;;6.75;;
73515;SDS011;61763;51.416;5.442;2022-12-18T07:22:30;10.63;;;4.57;;
73515;SDS011;61763;51.416;5.442;2022-12-18T07:24:55;21.52;;;7.90;;
73515;SDS011;61763;51.416;5.442;2022-12-18T07:27:21;11.30;;;4.78;;
73515;SDS011;61763;51.416;5.442;2022-12-18T07:29:46;18.58;;;5.53;;
73515;SDS011;61763;51.416;5.442;2022-12-18T07:32:12;14.82;;;5.35;;
73515;SDS011;61763;51.416;5.442;2022-12-18T07:34:37;18.73;;;6.35;;
73515;SDS011;61763;51.416;5.442;2022-12-18T07:37:03;21.02;;;5.30;;
73515;SDS011;61763;51.416;5.442;2022-12-18T07:39:28;23.77;;;7.75;;
73515;SDS011;61763;51.416;5.442;2022-12-18T07:41:54;12.10;;;4.47;;
73515;SDS011;61763;51.416;5.442;2022-12-18T07:44:38;21.42;;;7.50;;
73515;SDS011;61763;51.416;5.442;2022-12-18T07:47:04;10.07;;;3.97;;
73515;SDS011;61763;51.416;5.442;2022-12-18T07:49:29;11.18;;;4.07;;
73515;SDS011;61763;51.416;5.442;2022-12-18T07:51:55;14.88;;;7.28;;
73515;SDS011;61763;51.416;5.442;2022-12-18T07:54:21;17.75;;;8.00;;
73515;SDS011;61763;51.416;5.442;2022-12-18T07:56:48;17.45;;;5.97;;
73515;SDS011;61763;51.416;5.442;2022-12-18T07:59:13;12.23;;;4.95;;
73515;SDS011;61763;51.416;5.442;2022-12-18T08:01:38;15.10;;;6.13;;
73515;SDS011;61763;51.416;5.442;2022-12-18T08:04:04;11.30;;;5.30;;
73515;SDS011;61763;51.416;5.442;2022-12-18T08:06:29;12.55;;;5.18;;
73515;SDS011;61763;51.416;5.442;2022-12-18T08:08:55;13.88;;;5.63;;
73515;SDS011;61763;51.416;5.442;2022-12-18T08:11:21;16.52;;;7.35;;
73515;SDS011;61763;51.416;5.442;2022-12-18T08:13:48;16.48;;;5.13;;
73515;SDS011;61763;51.416;5.442;2022-12-18T08:16:13;22.00;;;8.70;;
73515;SDS011;61763;51.416;5.442;2022-12-18T08:18:39;18.40;;;6.07;;
73515;SDS011;61763;51.416;5.442;2022-12-18T08:23:54;11.25;;;4.38;;
73515;SDS011;61763;51.416;5.442;2022-12-18T08:26:21;23.05;;;7.45;;
73515;SDS011;61763;51.416;5.442;2022-12-18T08:28:47;19.83;;;7.43;;
73515;SDS011;61763;51.416;5.442;2022-12-18T08:31:13;11.45;;;4.45;;
73515;SDS011;61763;51.416;5.442;2022-12-18T08:33:39;22.85;;;7.10;;
73515;SDS011;61763;51.416;5.442;2022-12-18T08:36:05;13.82;;;4.35;;
73515;SDS011;61763;51.416;5.442;2022-12-18T08:38:31;15.77;;;4.15;;
73515;SDS011;61763;51.416;5.442;2022-12-18T08:41:04;20.35;;;7.35;;
73515;SDS011;61763;51.416;5.442;2022-12-18T08:43:31;22.30;;;8.10;;
73515;SDS011;61763;51.416;5.442;2022-12-18T08:46:16;24.25;;;9.07;;
73515;SDS011;61763;51.416;5.442;2022-12-18T08:48:42;10.38;;;3.70;;
73515;SDS011;61763;51.416;5.442;2022-12-18T08:51:08;16.15;;;7.25;;
73515;SDS011;61763;51.416;5.442;2022-12-18T08:53:36;14.15;;;4.72;;
73515;SDS011;61763;51.416;5.442;2022-12-18T08:56:02;19.13;;;6.60;;
73515;SDS011;61763;51.416;5.442;2022-12-18T08:58:29;12.38;;;4.93;;
73515;SDS011;61763;51.416;5.442;2022-12-18T09:00:59;11.90;;;5.10;;
73515;SDS011;61763;51.416;5.442;2022-12-18T09:03:25;17.50;;;5.80;;
73515;SDS011;61763;51.416;5.442;2022-12-18T09:05:51;18.70;;;6.25;;
73515;SDS011;61763;51.416;5.442;2022-12-18T09:08:16;17.70;;;6.85;;
73515;SDS011;61763;51.416;5.442;2022-12-18T09:10:43;19.30;;;6.35;;
73515;SDS011;61763;51.416;5.442;2022-12-18T09:13:10;15.50;;;5.93;;
73515;SDS011;61763;51.416;5.442;2022-12-18T09:15:40;22.80;;;8.32;;
73515;SDS011;61763;51.416;5.442;2022-12-18T09:18:10;5.22;;;2.30;;
73515;SDS011;61763;51.416;5.442;2022-12-18T09:20:36;17.65;;;7.90;;
73515;SDS011;61763;51.416;5.442;2022-12-18T09:23:02;18.63;;;7.45;;
73515;SDS011;61763;51.416;5.442;2022-12-18T09:25:28;19.30;;;6.95;;
73515;SDS011;61763;51.416;5.442;2022-12-18T09:27:58;22.30;;;7.88;;
73515;SDS011;61763;51.416;5.442;2022-12-18T09:30:39;5.95;;;2.58;;
73515;SDS011;61763;51.416;5.442;2022-12-18T09:33:06;11.45;;;4.60;;
73515;SDS011;61763;51.416;5.442;2022-12-18T09:35:32;19.63;;;8.23;;
73515;SDS011;61763;51.416;5.442;2022-12-18T09:37:57;24.40;;;9.38;;
73515;SDS011;61763;51.416;5.442;2022-12-18T09:40:24;22.05;;;6.47;;
73515;SDS011;61763;51.416;5.442;2022-12-18T09:42:55;20.33;;;6.95;;
73515;SDS011;61763;51.416;5.442;2022-12-18T09:45:24;23.35;;;7.53;;
73515;SDS011;61763;51.416;5.442;2022-12-18T09:47:50;21.35;;;7.00;;
73515;SDS011;61763;51.416;5.442;2022-12-18T09:50:21;17.02;;;6.40;;
73515;SDS011;61763;51.416;5.442;2022-12-18T09:52:52;14.40;;;6.78;;
73515;SDS011;61763;51.416;5.442;2022-12-18T09:55:31;12.90;;;4.95;;
73515;SDS011;61763;51.416;5.442;2022-12-18T09:58:05;11.73;;;4.40;;
73515;SDS011;61763;51.416;5.442;2022-12-18T10:00:34;22.13;;;7.05;;
73515;SDS011;61763;51.416;5.442;2022-12-18T10:03:01;18.65;;;7.55;;
73515;SDS011;61763;51.416;5.442;2022-12-18T10:08:23;16.88;;;6.15;;
73515;SDS011;61763;51.416;5.442;2022-12-18T10:17:16;11.05;;;5.28;;
73515;SDS011;61763;51.416;5.442;2022-12-18T10:20:41;17.65;;;5.47;;
73515;SDS011;61763;51.416;5.442;2022-12-18T10:28:20;16.25;;;6.22;;
73515;SDS011;61763;51.416;5.442;2022-12-18T10:30:47;17.15;;;6.45;;
73515;SDS011;61763;51.416;5.442;2022-12-18T10:33:13;12.27;;;4.30;;
73515;SDS011;61763;51.416;5.442;2022-12-18T10:35:41;17.25;;;6.55;;
73515;SDS011;61763;51.416;5.442;2022-12-18T10:40:49;20.77;;;6.32;;
73515;SDS011;61763;51.416;5.442;2022-12-18T10:43:32;18.20;;;7.07;;
73515;SDS011;61763;51.416;5.442;2022-12-18T10:50:59;11.88;;;5.75;;
73515;SDS011;61763;51.416;5.442;2022-12-18T10:53:26;25.88;;;8.32;;
73515;SDS011;61763;51.416;5.442;2022-12-18T10:55:53;13.82;;;5.45;;
73515;SDS011;61763;51.416;5.442;2022-12-18T10:58:28;12.55;;;4.30;;
73515;SDS011;61763;51.416;5.442;2022-12-18T11:12:01;9.73;;;4.00;;
73515;SDS011;61763;51.416;5.442;2022-12-18T11:14:32;21.00;;;7.72;;
73515;SDS011;61763;51.416;5.442;2022-12-18T11:17:16;22.35;;;8.38;;
73515;SDS011;61763;51.416;5.442;2022-12-18T11:20:02;20.73;;;8.07;;
73515;SDS011;61763;51.416;5.442;2022-12-18T11:22:56;18.73;;;6.45;;
73515;SDS011;61763;51.416;5.442;2022-12-18T11:25:24;13.65;;;5.78;;
73515;SDS011;61763;51.416;5.442;2022-12-18T11:27:54;24.50;;;8.23;;
73515;SDS011;61763;51.416;5.442;2022-12-18T11:30:31;20.67;;;7.40;;
73515;SDS011;61763;51.416;5.442;2022-12-18T11:35:53;26.75;;;8.95;;
73515;SDS011;61763;51.416;5.442;2022-12-18T11:38:23;17.80;;;6.82;;
73515;SDS011;61763;51.416;5.442;2022-12-18T11:44:18;15.52;;;6.30;;
73515;SDS011;61763;51.416;5.442;2022-12-18T11:46:51;21.67;;;7.93;;
73515;SDS011;61763;51.416;5.442;2022-12-18T11:49:24;18.20;;;7.10;;
73515;SDS011;61763;51.416;5.442;2022-12-18T11:54:31;16.50;;;6.80;;
73515;SDS011;61763;51.416;5.442;2022-12-18T11:59:56;19.27;;;7.60;;
73515;SDS011;61763;51.416;5.442;2022-12-18T12:05:36;20.13;;;6.72;;
73515;SDS011;61763;51.416;5.442;2022-12-18T12:19:42;19.52;;;8.07;;
73515;SDS011;61763;51.416;5.442;2022-12-18T12:30:07;15.65;;;6.22;;
73515;SDS011;61763;51.416;5.442;2022-12-18T12:39:01;16.40;;;5.60;;
73515;SDS011;61763;51.416;5.442;2022-12-18T12:41:06;24.48;;;8.77;;
73515;SDS011;61763;51.416;5.442;2022-12-18T12:43:58;17.38;;;5.72;;
73515;SDS011;61763;51.416;5.442;2022-12-18T12:46:26;18.05;;;7.85;;
73515;SDS011;61763;51.416;5.442;2022-12-18T12:48:55;11.77;;;4.80;;
73515;SDS011;61763;51.416;5.442;2022-12-18T12:51:28;19.90;;;6.88;;
73515;SDS011;61763;51.416;5.442;2022-12-18T12:53:57;14.48;;;5.53;;
73515;SDS011;61763;51.416;5.442;2022-12-18T12:56:24;11.82;;;5.43;;
73515;SDS011;61763;51.416;5.442;2022-12-18T12:59:19;22.10;;;8.63;;
73515;SDS011;61763;51.416;5.442;2022-12-18T13:02:13;18.17;;;8.18;;
73515;SDS011;61763;51.416;5.442;2022-12-18T13:04:47;9.18;;;3.63;;
73515;SDS011;61763;51.416;5.442;2022-12-18T13:07:18;24.33;;;8.55;;
73515;SDS011;61763;51.416;5.442;2022-12-18T13:15:43;14.27;;;6.05;;
73515;SDS011;61763;51.416;5.442;2022-12-18T13:18:14;10.35;;;3.63;;
73515;SDS011;61763;51.416;5.442;2022-12-18T13:23:31;23.63;;;9.02;;
73515;SDS011;61763;51.416;5.442;2022-12-18T13:33:42;17.90;;;7.33;;
73515;SDS011;61763;51.416;5.442;2022-12-18T13:41:47;22.42;;;8.20;;
73515;SDS011;61763;51.416;5.442;2022-12-18T13:46:50;19.27;;;7.70;;
73515;SDS011;61763;51.416;5.442;2022-12-18T13:52:01;19.30;;;7.65;;
73515;SDS011;61763;51.416;5.442;2022-12-18T13:54:38;16.90;;;6.97;;
73515;SDS011;61763;51.416;5.442;2022-12-18T13:57:25;18.55;;;7.40;;
73515;SDS011;61763;51.416;5.442;2022-12-18T14:02:44;17.88;;;7.43;;
73515;SDS011;61763;51.416;5.442;2022-12-18T14:05:27;17.65;;;7.28;;
73515;SDS011;61763;51.416;5.442;2022-12-18T14:07:55;23.17;;;8.00;;
73515;SDS011;61763;51.416;5.442;2022-12-18T14:10:26;17.23;;;6.72;;
73515;SDS011;61763;51.416;5.442;2022-12-18T14:12:52;21.10;;;9.23;;
73515;SDS011;61763;51.416;5.442;2022-12-18T14:15:26;21.23;;;8.13;;
73515;SDS011;61763;51.416;5.442;2022-12-18T14:18:00;22.85;;;8.75;;
73515;SDS011;61763;51.416;5.442;2022-12-18T14:20:29;18.90;;;7.95;;
73515;SDS011;61763;51.416;5.442;2022-12-18T14:22:57;19.02;;;8.48;;
73515;SDS011;61763;51.416;5.442;2022-12-18T14:25:24;22.20;;;8.27;;
73515;SDS011;61763;51.416;5.442;2022-12-18T14:30:35;17.95;;;8.32;;
73515;SDS011;61763;51.416;5.442;2022-12-18T14:33:08;20.77;;;8.75;;
73515;SDS011;61763;51.416;5.442;2022-12-18T14:35:39;18.08;;;7.13;;
73515;SDS011;61763;51.416;5.442;2022-12-18T14:40:41;22.88;;;8.77;;
73515;SDS011;61763;51.416;5.442;2022-12-18T14:43:10;22.05;;;8.18;;
73515;SDS011;61763;51.416;5.442;2022-12-18T14:45:41;23.15;;;9.02;;
73515;SDS011;61763;51.416;5.442;2022-12-18T14:48:15;20.52;;;8.80;;
73515;SDS011;61763;51.416;5.442;2022-12-18T14:50:44;18.65;;;7.88;;
73515;SDS011;61763;51.416;5.442;2022-12-18T14:53:20;21.63;;;8.50;;
73515;SDS011;61763;51.416;5.442;2022-12-18T14:55:55;19.17;;;7.38;;
73515;SDS011;61763;51.416;5.442;2022-12-18T14:58:21;21.13;;;8.57;;
73515;SDS011;61763;51.416;5.442;2022-12-18T15:00:47;21.05;;;8.30;;
73515;SDS011;61763;51.416;5.442;2022-12-18T15:03:13;22.13;;;7.82;;
73515;SDS011;61763;51.416;5.442;2022-12-18T15:05:45;18.67;;;7.00;;
73515;SDS011;61763;51.416;5.442;2022-12-18T15:08:27;20.20;;;8.38;;
73515;SDS011;61763;51.416;5.442;2022-12-18T15:11:01;22.20;;;8.23;;
73515;SDS011;61763;51.416;5.442;2022-12-18T15:13:27;21.08;;;7.57;;
73515;SDS011;61763;51.416;5.442;2022-12-18T15:15:53;22.13;;;7.93;;
73515;SDS011;61763;51.416;5.442;2022-12-18T15:18:21;20.27;;;8.35;;
73515;SDS011;61763;51.416;5.442;2022-12-18T15:20:56;21.55;;;7.30;;
73515;SDS011;61763;51.416;5.442;2022-12-18T15:23:38;19.92;;;8.57;;
73515;SDS011;61763;51.416;5.442;2022-12-18T15:26:11;22.85;;;7.60;;
73515;SDS011;61763;51.416;5.442;2022-12-18T15:31:32;18.50;;;7.47;;
73515;SDS011;61763;51.416;5.442;2022-12-18T15:34:10;17.45;;;7.53;;
73515;SDS011;61763;51.416;5.442;2022-12-18T15:36:38;20.00;;;7.03;;
73515;SDS011;61763;51.416;5.442;2022-12-18T15:39:03;22.48;;;8.13;;
73515;SDS011;61763;51.416;5.442;2022-12-18T15:41:30;21.30;;;8.00;;
73515;SDS011;61763;51.416;5.442;2022-12-18T15:43:56;24.83;;;9.10;;
73515;SDS011;61763;51.416;5.442;2022-12-18T15:46:23;20.60;;;7.93;;
73515;SDS011;61763;51.416;5.442;2022-12-18T15:48:53;19.25;;;7.63;;
73515;SDS011;61763;51.416;5.442;2022-12-18T15:51:21;22.77;;;8.48;;
73515;SDS011;61763;51.416;5.442;2022-12-18T15:53:50;21.73;;;8.57;;
73515;SDS011;61763;51.416;5.442;2022-12-18T15:56:18;24.38;;;8.40;;
73515;SDS011;61763;51.416;5.442;2022-12-18T15:59:04;18.15;;;8.52;;
73515;SDS011;61763;51.416;5.442;2022-12-18T16:01:37;20.00;;;7.57;;
73515;SDS011;61763;51.416;5.442;2022-12-18T16:04:03;25.67;;;9.25;;
73515;SDS011;61763;51.416;5.442;2022-12-18T16:06:34;24.80;;;9.25;;
73515;SDS011;61763;51.416;5.442;2022-12-18T16:09:01;21.77;;;8.85;;
73515;SDS011;61763;51.416;5.442;2022-12-18T16:11:30;22.38;;;7.95;;
73515;SDS011;61763;51.416;5.442;2022-12-18T16:14:04;18.70;;;6.47;;
73515;SDS011;61763;51.416;5.442;2022-12-18T16:16:48;19.65;;;7.72;;
73515;SDS011;61763;51.416;5.442;2022-12-18T16:19:15;23.33;;;8.57;;
73515;SDS011;61763;51.416;5.442;2022-12-18T16:21:41;20.30;;;8.43;;
73515;SDS011;61763;51.416;5.442;2022-12-18T16:24:12;25.35;;;9.77;;
73515;SDS011;61763;51.416;5.442;2022-12-18T16:26:43;21.95;;;8.20;;
73515;SDS011;61763;51.416;5.442;2022-12-18T16:29:09;22.13;;;9.32;;
73515;SDS011;61763;51.416;5.442;2022-12-18T16:31:35;21.45;;;8.23;;
73515;SDS011;61763;51.416;5.442;2022-12-18T16:34:20;21.30;;;8.65;;
73515;SDS011;61763;51.416;5.442;2022-12-18T16:36:56;20.35;;;7.72;;
73515;SDS011;61763;51.416;5.442;2022-12-18T16:39:23;20.02;;;7.30;;
73515;SDS011;61763;51.416;5.442;2022-12-18T16:41:51;21.75;;;6.97;;
73515;SDS011;61763;51.416;5.442;2022-12-18T16:44:16;20.85;;;8.13;;
73515;SDS011;61763;51.416;5.442;2022-12-18T16:46:42;17.13;;;7.30;;
73515;SDS011;61763;51.416;5.442;2022-12-18T16:49:10;19.52;;;8.05;;
73515;SDS011;61763;51.416;5.442;2022-12-18T16:51:35;13.02;;;6.00;;
73515;SDS011;61763;51.416;5.442;2022-12-18T16:54:01;16.35;;;6.60;;
73515;SDS011;61763;51.416;5.442;2022-12-18T16:56:28;14.00;;;6.15;;
73515;SDS011;61763;51.416;5.442;2022-12-18T16:58:57;23.55;;;7.97;;
73515;SDS011;61763;51.416;5.442;2022-12-18T17:01:24;22.70;;;8.43;;
73515;SDS011;61763;51.416;5.442;2022-12-18T17:03:52;19.92;;;9.50;;
73515;SDS011;61763;51.416;5.442;2022-12-18T17:06:18;24.30;;;9.13;;
73515;SDS011;61763;51.416;5.442;2022-12-18T17:08:44;22.42;;;9.10;;
73515;SDS011;61763;51.416;5.442;2022-12-18T17:11:09;21.70;;;9.23;;
73515;SDS011;61763;51.416;5.442;2022-12-18T17:13:34;22.83;;;9.18;;
73515;SDS011;61763;51.416;5.442;2022-12-18T17:16:06;23.95;;;10.23;;
73515;SDS011;61763;51.416;5.442;2022-12-18T17:18:33;21.25;;;9.27;;
73515;SDS011;61763;51.416;5.442;2022-12-18T17:20:59;24.67;;;8.98;;